Time;durP1;ratioP1;P1;durP2;ratioP2;P2;SDS_P1;SDS_P2;PMS_P1;PMS_P2;Temp;Humidity;BMP_temperature;BMP_pressure;BME280_temperature;BME280_humidity;BME280_pressure;Samples;Min_cycle;Max_cycle;Signal;HPM_P1;HPM_P2
2023/10/28 00:01:53;;;;;;;;;;;;;;;15.59;47.07;99587.13;5082860;28;994;-54
2023/10/28 00:04:18;;;;;;;;;;;;;;;15.59;46.96;99595.34;5095729;28;1058;-52
2023/10/28 00:06:44;;;;;;;;;;;;;;;15.82;47.46;99607.41;5093714;28;998;-54
2023/10/28 00:09:10;;;;;;;;;;;;;;;16.20;48.08;99592.78;5076119;28;1170;-52
2023/10/28 00:11:36;;;;;;;;;;;;;;;15.83;47.97;99609.00;5089529;28;1042;-50
2023/10/28 00:14:01;;;;;;;;;;;;;;;15.85;47.37;99609.53;5088985;28;1166;-50
2023/10/28 00:16:27;;;;;;;;;;;;;;;15.66;47.43;99598.53;5089762;28;1039;-53
2023/10/28 00:18:52;;;;;;;;;;;;;;;15.62;47.16;99592.00;5095341;28;1901;-51
2023/10/28 00:21:18;;;;;;;;;;;;;;;15.75;46.25;99587.72;5081764;28;1122;-53
2023/10/28 00:23:44;;;;;;;;;;;;;;;15.55;46.85;99586.88;5083266;28;1138;-52
2023/10/28 00:26:10;;;;;;;;;;;;;;;15.66;46.42;99601.28;5081841;28;1042;-53
2023/10/28 00:28:36;;;;;;;;;;;;;;;15.61;46.54;99593.09;5075682;28;988;-50
2023/10/28 00:31:03;;;;;;;;;;;;;;;15.65;46.22;99591.41;5075977;28;821;-51
2023/10/28 00:33:29;;;;;;;;;;;;;;;15.57;46.18;99581.94;5082040;28;1050;-50
2023/10/28 00:35:54;;;;;;;;;;;;;;;15.59;45.98;99589.06;5082397;28;1098;-53
2023/10/28 00:38:20;;;;;;;;;;;;;;;15.48;46.25;99585.66;5096762;28;1251;-49
2023/10/28 00:40:46;;;;;;;;;;;;;;;15.80;46.76;99592.34;5099556;28;1984;-53
2023/10/28 00:43:12;;;;;;;;;;;;;;;16.19;47.86;99596.69;5088007;28;1318;-51
2023/10/28 00:45:38;;;;;;;;;;;;;;;15.90;47.56;99601.22;5099661;28;1149;-51
2023/10/28 00:48:05;;;;;;;;;;;;;;;15.77;47.28;99601.94;5092862;28;1109;-53
2023/10/28 00:50:30;;;;;;;;;;;;;;;15.72;47.08;99605.59;5079480;28;1157;-57
2023/10/28 00:52:56;;;;;;;;;;;;;;;15.63;46.90;99604.59;5085781;28;1212;-53
2023/10/28 00:55:22;;;;;;;;;;;;;;;15.63;46.61;99601.88;5067540;28;895;-54
2023/10/28 00:57:48;;;;;;;;;;;;;;;15.72;46.27;99610.22;5085803;28;1056;-54
2023/10/28 01:00:17;;;;;;;;;;;;;;;15.47;46.51;99603.19;5099446;28;1966;-54
2023/10/28 01:02:43;;;;;;;;;;;;;;;16.26;47.70;99613.56;5092500;28;1027;-52
2023/10/28 01:05:11;;;;;;;;;;;;;;;15.84;47.69;99607.91;5079143;28;1046;-55
2023/10/28 01:07:38;;;;;;;;;;;;;;;15.79;47.20;99613.44;5079788;28;1289;-55
2023/10/28 01:10:03;;;;;;;;;;;;;;;15.70;47.08;99617.94;5098800;28;1130;-56
2023/10/28 01:12:29;;;;;;;;;;;;;;;15.66;46.96;99612.22;5085952;28;1121;-53
2023/10/28 01:14:55;;;;;;;;;;;;;;;15.63;46.61;99612.81;5085300;28;1050;-53
2023/10/28 01:17:25;;;;;;;;;;;;;;;15.66;46.51;99616.91;5086004;28;1133;-54
2023/10/28 01:19:53;;;;;;;;;;;;;;;15.59;46.42;99620.00;5066883;28;1909;-54
2023/10/28 01:22:21;;;;;;;;;;;;;;;15.62;46.34;99624.09;5099361;28;1108;-56
2023/10/28 01:24:49;;;;;;;;;;;;;;;15.60;46.31;99635.34;5080857;28;1038;-55
2023/10/28 01:27:14;;;;;;;;;;;;;;;15.66;46.06;99633.34;5098914;28;1070;-56
2023/10/28 01:29:40;;;;;;;;;;;;;;;15.51;46.02;99642.59;5097201;28;1054;-54
2023/10/28 01:32:06;;;;;;;;;;;;;;;15.51;45.98;99631.63;5060894;28;1456;-53
2023/10/28 01:34:31;;;;;;;;;;;;;;;15.53;46.12;99645.84;5093594;28;1098;-55
2023/10/28 01:36:57;;;;;;;;;;;;;;;15.44;46.27;99645.69;5098553;28;983;-53
2023/10/28 01:39:23;;;;;;;;;;;;;;;16.33;46.83;99638.66;5098674;28;1967;-56
2023/10/28 01:41:49;;;;;;;;;;;;;;;15.87;47.57;99644.88;5092029;28;1186;-54
2023/10/28 01:44:16;;;;;;;;;;;;;;;15.71;47.16;99647.78;5083810;28;1018;-51
2023/10/28 01:46:41;;;;;;;;;;;;;;;15.79;47.51;99649.06;5087026;28;1039;-52
2023/10/28 01:49:07;;;;;;;;;;;;;;;16.17;48.29;99660.06;5097959;28;1041;-55
2023/10/28 01:51:32;;;;;;;;;;;;;;;15.95;47.96;99652.44;5097866;28;1054;-54
2023/10/28 01:53:58;;;;;;;;;;;;;;;15.69;48.00;99650.00;5077837;28;1573;-53
2023/10/28 01:56:23;;;;;;;;;;;;;;;15.77;47.09;99650.44;5086400;28;996;-55
2023/10/28 01:58:49;;;;;;;;;;;;;;;15.56;47.29;99635.09;5066811;28;1902;-53
2023/10/28 02:01:14;;;;;;;;;;;;;;;16.47;48.44;99641.47;5072352;28;1162;-54
2023/10/28 02:03:40;;;;;;;;;;;;;;;15.95;48.63;99657.91;5092444;28;1014;-52
2023/10/28 02:06:06;;;;;;;;;;;;;;;15.87;47.83;99653.91;5097957;28;1050;-51
2023/10/28 02:08:32;;;;;;;;;;;;;;;15.84;47.27;99662.72;5084336;28;1058;-54
2023/10/28 02:10:58;;;;;;;;;;;;;;;15.76;47.23;99649.63;5072078;28;1178;-53
2023/10/28 02:13:23;;;;;;;;;;;;;;;15.71;46.81;99658.75;5092558;28;1055;-54
2023/10/28 02:15:49;;;;;;;;;;;;;;;15.67;46.34;99646.75;5072196;28;1114;-51
2023/10/28 02:18:15;;;;;;;;;;;;;;;15.62;46.59;99652.28;5072398;28;1123;-55
2023/10/28 02:20:41;;;;;;;;;;;;;;;15.64;46.25;99661.06;5089734;28;1914;-55
2023/10/28 02:23:09;;;;;;;;;;;;;;;15.62;46.10;99670.66;5091001;28;1121;-52
2023/10/28 02:25:35;;;;;;;;;;;;;;;15.56;46.03;99656.22;5077545;28;1011;-51
2023/10/28 02:28:00;;;;;;;;;;;;;;;15.60;45.96;99667.41;5091182;28;1178;-52
2023/10/28 02:30:26;;;;;;;;;;;;;;;15.58;46.11;99673.16;5077586;28;1218;-54
2023/10/28 02:32:54;;;;;;;;;;;;;;;15.62;46.07;99678.91;5090771;28;1193;-51
2023/10/28 02:35:19;;;;;;;;;;;;;;;15.46;46.00;99675.50;5077536;28;1217;-51
2023/10/28 02:37:45;;;;;;;;;;;;;;;15.55;46.01;99666.34;5092515;28;1056;-53
2023/10/28 02:40:11;;;;;;;;;;;;;;;15.51;45.97;99669.97;5088402;28;1967;-50
2023/10/28 02:42:36;;;;;;;;;;;;;;;15.45;45.99;99666.50;5090760;28;1126;-52
2023/10/28 02:45:04;;;;;;;;;;;;;;;16.37;46.64;99675.38;5077411;28;1098;-54
2023/10/28 02:47:32;;;;;;;;;;;;;;;15.83;47.61;99676.72;5061406;28;1289;-53
2023/10/28 02:49:59;;;;;;;;;;;;;;;15.66;47.30;99669.78;5097281;28;1142;-50
2023/10/28 02:52:24;;;;;;;;;;;;;;;15.60;46.96;99657.28;5078690;28;1166;-53
2023/10/28 02:54:50;;;;;;;;;;;;;;;15.56;46.50;99668.00;5087090;28;1041;-54
2023/10/28 02:57:16;;;;;;;;;;;;;;;15.56;46.41;99675.41;5090541;28;1138;-51
2023/10/28 02:59:41;;;;;;;;;;;;;;;15.56;46.23;99678.16;5086488;28;1964;-52
2023/10/28 03:02:07;;;;;;;;;;;;;;;15.52;45.86;99688.84;5079508;28;1086;-55
2023/10/28 03:04:32;;;;;;;;;;;;;;;15.44;46.09;99685.97;5076713;28;1111;-50
2023/10/28 03:06:58;;;;;;;;;;;;;;;15.49;45.82;99681.22;5071988;28;1289;-54
2023/10/28 03:09:24;;;;;;;;;;;;;;;15.44;45.81;99686.75;5085980;28;1054;-54
2023/10/28 03:11:49;;;;;;;;;;;;;;;16.66;47.06;99696.31;5065521;28;1003;-53
2023/10/28 03:14:15;;;;;;;;;;;;;;;16.02;48.33;99685.78;5096853;28;1054;-51
2023/10/28 03:16:41;;;;;;;;;;;;;;;15.86;48.03;99681.59;5081203;28;1196;-53
2023/10/28 03:19:07;;;;;;;;;;;;;;;15.73;47.33;99686.69;5076464;28;1886;-51
2023/10/28 03:21:32;;;;;;;;;;;;;;;15.62;47.21;99695.34;5060783;28;1128;-55
2023/10/28 03:23:57;;;;;;;;;;;;;;;15.69;46.77;99695.78;5096829;28;1098;-58
2023/10/28 03:26:23;;;;;;;;;;;;;;;15.63;46.40;99691.50;5078442;28;1054;-56
2023/10/28 03:28:49;;;;;;;;;;;;;;;16.42;47.33;99694.50;5096736;28;1118;-56
2023/10/28 03:31:14;;;;;;;;;;;;;;;15.91;47.74;99684.28;5094430;28;1095;-52
2023/10/28 03:33:40;;;;;;;;;;;;;;;15.78;47.49;99707.75;5076086;28;1085;-57
2023/10/28 03:36:06;;;;;;;;;;;;;;;15.69;47.20;99698.53;5076773;28;1087;-56
2023/10/28 03:38:34;;;;;;;;;;;;;;;15.66;46.67;99708.16;5089700;28;1118;-58
2023/10/28 03:41:06;;;;;;;;;;;;;;;15.67;46.65;99701.56;5086278;28;1059;-57
2023/10/28 03:43:32;;;;;;;;;;;;;;;15.60;46.28;99712.06;5095935;28;1108;-57
2023/10/28 03:45:57;;;;;;;;;;;;;;;16.80;46.95;99709.25;5085094;28;1058;-57
2023/10/28 03:48:23;;;;;;;;;;;;;;;16.03;48.33;99709.34;5076234;28;1132;-60
2023/10/28 03:51:08;;;;;;;;;;;;;;;15.91;47.77;99714.44;5075991;28;1114;-52
2023/10/28 03:53:34;;;;;;;;;;;;;;;15.79;47.52;99703.06;5075408;28;1620;-56
2023/10/28 03:56:00;;;;;;;;;;;;;;;15.82;46.91;99713.47;5082255;28;1167;-57
2023/10/28 03:58:25;;;;;;;;;;;;;;;15.70;46.86;99720.16;5092789;28;911;-59
2023/10/28 04:00:53;;;;;;;;;;;;;;;15.67;46.86;99723.50;5095669;28;1986;-56
2023/10/28 04:03:21;;;;;;;;;;;;;;;15.70;46.40;99731.13;5091338;28;1338;-60
2023/10/28 04:05:47;;;;;;;;;;;;;;;15.60;46.46;99739.47;5095331;28;1093;-58
2023/10/28 04:08:13;;;;;;;;;;;;;;;15.61;46.28;99745.75;5084372;28;1011;-60
2023/10/28 04:10:38;;;;;;;;;;;;;;;15.55;46.45;99745.00;5095929;28;1065;-58
2023/10/28 04:13:04;;;;;;;;;;;;;;;15.56;46.07;99752.13;5082268;28;1181;-58
2023/10/28 04:15:30;;;;;;;;;;;;;;;15.50;46.26;99745.06;5094650;28;1382;-52
2023/10/28 04:17:55;;;;;;;;;;;;;;;15.44;46.10;99747.03;5082199;28;1197;-51
2023/10/28 04:20:21;;;;;;;;;;;;;;;15.49;46.05;99749.72;5083445;28;1972;-56
2023/10/28 04:22:47;;;;;;;;;;;;;;;15.55;46.04;99764.19;5087970;28;983;-49
2023/10/28 04:25:12;;;;;;;;;;;;;;;15.45;46.01;99764.31;5080005;28;1038;-55
2023/10/28 04:27:38;;;;;;;;;;;;;;;15.50;46.03;99762.31;5076021;28;1062;-54
2023/10/28 04:30:04;;;;;;;;;;;;;;;15.43;46.23;99771.97;5088823;28;1435;-59
2023/10/28 04:32:30;;;;;;;;;;;;;;;16.26;46.77;99778.13;5085994;28;1098;-54
2023/10/28 04:34:56;;;;;;;;;;;;;;;17.11;46.02;99786.47;5093339;28;1100;-52
2023/10/28 04:37:21;;;;;;;;;;;;;;;16.57;47.74;99786.72;5095880;28;1074;-56
2023/10/28 04:39:47;;;;;;;;;;;;;;;16.40;48.38;99790.00;5092687;28;1897;-55
2023/10/28 04:42:12;;;;;;;;;;;;;;;16.28;48.78;99786.06;5075897;28;1079;-57
2023/10/28 04:44:38;;;;;;;;;;;;;;;16.17;49.28;99786.22;5089018;28;1130;-52
2023/10/28 04:47:03;;;;;;;;;;;;;;;16.14;49.76;99802.44;5085334;28;1103;-50
2023/10/28 04:49:29;;;;;;;;;;;;;;;16.08;49.77;99801.69;5093423;28;1145;-51
2023/10/28 04:51:54;;;;;;;;;;;;;;;15.99;50.45;99804.28;5075740;28;1062;-51
2023/10/28 04:54:20;;;;;;;;;;;;;;;15.98;50.48;99799.09;5075031;28;1242;-55
2023/10/28 04:56:46;;;;;;;;;;;;;;;15.89;51.03;99805.22;5079821;28;897;-56
2023/10/28 04:59:12;;;;;;;;;;;;;;;15.85;50.99;99803.31;5091744;28;1967;-56
2023/10/28 05:01:38;;;;;;;;;;;;;;;15.83;51.37;99800.88;5086043;28;1165;-56
2023/10/28 05:04:04;;;;;;;;;;;;;;;17.27;48.22;99806.25;5078106;28;1038;-55
2023/10/28 05:06:30;;;;;;;;;;;;;;;16.67;49.59;99818.69;5095281;28;1097;-57
2023/10/28 05:08:55;;;;;;;;;;;;;;;16.38;50.46;99825.16;5080246;28;1086;-57
2023/10/28 05:11:21;;;;;;;;;;;;;;;16.19;51.26;99821.56;5081176;28;1087;-59
2023/10/28 05:13:46;;;;;;;;;;;;;;;16.11;51.50;99822.22;5097928;28;1045;-60
2023/10/28 05:16:13;;;;;;;;;;;;;;;16.03;51.83;99834.66;5075580;28;1124;-60
2023/10/28 05:18:38;;;;;;;;;;;;;;;16.01;52.05;99850.59;5083164;28;1987;-56
2023/10/28 05:21:05;;;;;;;;;;;;;;;17.46;48.55;99841.91;5090800;28;1405;-55
2023/10/28 05:23:31;;;;;;;;;;;;;;;16.75;50.18;99861.16;5089221;28;1459;-57
2023/10/28 05:25:56;;;;;;;;;;;;;;;16.43;51.33;99857.19;5083456;28;1030;-60
2023/10/28 05:28:22;;;;;;;;;;;;;;;16.20;51.74;99840.47;5094325;28;1077;-56
2023/10/28 05:30:47;;;;;;;;;;;;;;;16.20;52.20;99856.94;5092787;28;1111;-55
2023/10/28 05:33:13;;;;;;;;;;;;;;;16.15;52.27;99872.66;5092139;28;979;-57
2023/10/28 05:35:39;;;;;;;;;;;;;;;16.10;52.44;99884.47;5091532;28;1008;-59
2023/10/28 05:38:04;;;;;;;;;;;;;;;16.01;52.67;99892.53;5086321;28;1229;-56
2023/10/28 05:40:30;;;;;;;;;;;;;;;16.77;51.33;99881.72;5085626;28;2004;-59
2023/10/28 05:42:55;;;;;;;;;;;;;;;17.08;50.48;99884.03;5090851;28;1117;-58
2023/10/28 05:45:21;;;;;;;;;;;;;;;16.56;51.78;99897.66;5093962;28;963;-57
2023/10/28 05:47:47;;;;;;;;;;;;;;;16.42;52.38;99902.19;5090310;28;1054;-59
2023/10/28 05:50:13;;;;;;;;;;;;;;;16.23;52.81;99899.44;5098561;28;1074;-57
2023/10/28 05:52:38;;;;;;;;;;;;;;;16.18;53.06;99903.03;5098512;28;1062;-57
2023/10/28 05:55:04;;;;;;;;;;;;;;;16.12;53.10;99903.38;5084696;28;1069;-56
2023/10/28 05:57:30;;;;;;;;;;;;;;;16.06;53.26;99902.63;5068121;28;985;-58
2023/10/28 05:59:55;;;;;;;;;;;;;;;16.01;53.45;99913.66;5092045;28;1906;-58
2023/10/28 06:02:21;;;;;;;;;;;;;;;17.03;51.38;99911.56;5097389;28;1366;-61
2023/10/28 06:04:46;;;;;;;;;;;;;;;17.02;51.11;99923.66;5085288;28;1429;-57
2023/10/28 06:07:12;;;;;;;;;;;;;;;16.55;52.63;99923.44;5090387;28;1186;-48
2023/10/28 06:09:37;;;;;;;;;;;;;;;16.38;53.19;99929.41;5092743;28;1245;-57
2023/10/28 06:12:03;;;;;;;;;;;;;;;16.27;53.35;99938.88;5085646;28;1356;-57
2023/10/28 06:14:30;;;;;;;;;;;;;;;16.17;53.40;99938.97;5081857;28;1487;-59
2023/10/28 06:16:56;;;;;;;;;;;;;;;16.13;53.47;99937.94;5077606;28;1095;-55
2023/10/28 06:19:23;;;;;;;;;;;;;;;17.31;51.20;99930.91;5082832;28;1976;-54
2023/10/28 06:21:49;;;;;;;;;;;;;;;16.90;51.95;99945.25;5088176;28;902;-55
2023/10/28 06:24:14;;;;;;;;;;;;;;;16.51;53.18;99949.84;5092523;28;1330;-56
2023/10/28 06:26:40;;;;;;;;;;;;;;;16.41;53.40;99956.28;5089380;28;1101;-58
2023/10/28 06:29:05;;;;;;;;;;;;;;;16.28;53.31;99956.97;5088288;28;1121;-59
2023/10/28 06:31:36;;;;;;;;;;;;;;;16.19;53.61;99954.03;5097218;28;1073;-59
2023/10/28 06:34:04;;;;;;;;;;;;;;;16.14;53.80;99962.31;5085812;28;1008;-59
2023/10/28 06:36:29;;;;;;;;;;;;;;;16.05;53.92;99959.41;5077136;28;1050;-57
2023/10/28 06:38:55;;;;;;;;;;;;;;;17.16;51.80;99966.88;5077402;28;1984;-58
2023/10/28 06:41:21;;;;;;;;;;;;;;;16.98;52.47;99974.78;5088189;28;1113;-55
2023/10/28 06:43:46;;;;;;;;;;;;;;;16.55;53.54;99966.53;5088375;28;1214;-60
2023/10/28 06:46:12;;;;;;;;;;;;;;;16.37;53.99;99970.88;5083057;28;905;-59
2023/10/28 06:48:37;;;;;;;;;;;;;;;16.32;54.11;99974.47;5094567;28;1217;-59
2023/10/28 06:51:04;;;;;;;;;;;;;;;16.26;53.88;99975.66;5092641;28;1316;-58
2023/10/28 06:53:30;;;;;;;;;;;;;;;16.15;54.40;99980.41;5087205;28;1141;-57
2023/10/28 06:55:55;;;;;;;;;;;;;;;16.05;54.49;99975.84;5083597;28;1069;-60
2023/10/28 06:58:21;;;;;;;;;;;;;;;16.60;53.80;99982.94;5086306;28;952;-59
2023/10/28 07:00:46;;;;;;;;;;;;;;;17.22;52.23;99979.41;5080396;28;1906;-59
2023/10/28 07:03:14;;;;;;;;;;;;;;;16.68;53.86;99987.78;5087033;28;1368;-58
2023/10/28 07:05:39;;;;;;;;;;;;;;;16.48;54.24;99982.53;5090647;28;1131;-58
2023/10/28 07:08:05;;;;;;;;;;;;;;;16.34;54.33;99980.50;5075808;28;1100;-57
2023/10/28 07:10:30;;;;;;;;;;;;;;;16.30;54.50;99979.44;5091218;28;1289;-58
2023/10/28 07:12:56;;;;;;;;;;;;;;;16.22;54.61;99985.56;5091676;28;970;-58
2023/10/28 07:15:22;;;;;;;;;;;;;;;16.15;54.51;99979.63;5085389;28;1065;-57
2023/10/28 07:17:47;;;;;;;;;;;;;;;16.06;54.84;99969.28;5087914;28;1066;-57
2023/10/28 07:20:13;;;;;;;;;;;;;;;16.15;54.84;99974.13;5076908;28;1910;-58
2023/10/28 07:22:39;;;;;;;;;;;;;;;17.32;53.21;99976.53;5096311;28;916;-58
2023/10/28 07:25:06;;;;;;;;;;;;;;;16.91;54.13;99968.84;5095905;28;1058;-58
2023/10/28 07:27:31;;;;;;;;;;;;;;;16.67;54.50;99980.66;5087066;28;1108;-56
2023/10/28 07:29:59;;;;;;;;;;;;;;;16.47;55.00;99980.91;5076055;28;1252;-61
2023/10/28 07:32:25;;;;;;;;;;;;;;;16.37;55.27;99973.63;5077073;28;1028;-56
2023/10/28 07:34:50;;;;;;;;;;;;;;;16.31;55.03;99985.75;5091330;28;1046;-58
2023/10/28 07:37:16;;;;;;;;;;;;;;;16.23;55.15;99981.72;5082122;28;1039;-58
2023/10/28 07:39:43;;;;;;;;;;;;;;;16.20;55.08;99987.78;5095802;28;1975;-61
2023/10/28 07:42:08;;;;;;;;;;;;;;;16.15;54.98;99996.06;5093676;28;1350;-57
2023/10/28 07:44:34;;;;;;;;;;;;;;;16.08;54.91;99994.47;5087368;28;1113;-58
2023/10/28 07:47:00;;;;;;;;;;;;;;;16.08;54.71;99991.72;5080250;28;919;-56
2023/10/28 07:49:25;;;;;;;;;;;;;;;16.00;54.93;99994.28;5086981;28;1022;-58
2023/10/28 07:51:51;;;;;;;;;;;;;;;16.97;53.97;99995.16;5080795;28;1073;-56
2023/10/28 07:54:16;;;;;;;;;;;;;;;17.17;53.68;99996.78;5077870;28;1144;-57
2023/10/28 07:56:42;;;;;;;;;;;;;;;16.63;55.21;99996.06;5095749;28;1620;-52
2023/10/28 07:59:10;;;;;;;;;;;;;;;16.51;55.22;99998.41;5097770;28;1901;-60
2023/10/28 08:01:36;;;;;;;;;;;;;;;16.42;55.07;100009.22;5079908;28;1089;-59
2023/10/28 08:04:04;;;;;;;;;;;;;;;16.32;55.44;100001.91;5080840;28;1305;-60
2023/10/28 08:06:30;;;;;;;;;;;;;;;16.25;55.27;100006.94;5080497;28;1083;-60
2023/10/28 08:08:55;;;;;;;;;;;;;;;16.19;55.40;99999.88;5092414;28;1185;-64
2023/10/28 08:11:24;;;;;;;;;;;;;;;16.17;55.17;100002.06;5082534;28;1252;-58
2023/10/28 08:13:49;;;;;;;;;;;;;;;16.14;55.16;100011.69;5081635;28;1170;-60
2023/10/28 08:16:18;;;;;;;;;;;;;;;16.49;55.26;100006.94;5088653;28;1172;-59
2023/10/28 08:18:45;;;;;;;;;;;;;;;17.42;53.59;100005.78;5089341;28;1933;-57
2023/10/28 08:21:10;;;;;;;;;;;;;;;16.81;55.20;100012.91;5098048;28;1193;-61
2023/10/28 08:23:38;;;;;;;;;;;;;;;16.55;55.47;100005.78;5095694;28;1370;-61
2023/10/28 08:26:05;;;;;;;;;;;;;;;16.40;55.47;99986.75;5100987;28;1245;-60
2023/10/28 08:28:31;;;;;;;;;;;;;;;16.42;55.31;100012.78;5098459;28;1267;-59
2023/10/28 08:30:56;;;;;;;;;;;;;;;16.34;55.69;100005.19;5096563;28;1145;-57
2023/10/28 08:33:22;;;;;;;;;;;;;;;16.30;55.59;99997.81;5083611;28;1382;-56
2023/10/28 08:35:48;;;;;;;;;;;;;;;16.28;55.17;99995.38;5095233;28;1235;-59
2023/10/28 08:38:16;;;;;;;;;;;;;;;16.23;55.47;100003.66;5094123;28;1030;-58
2023/10/28 08:40:45;;;;;;;;;;;;;;;16.18;55.24;100015.50;5086503;28;1901;-59
2023/10/28 08:43:11;;;;;;;;;;;;;;;16.13;55.48;100014.72;5075701;28;1075;-57
2023/10/28 08:45:37;;;;;;;;;;;;;;;16.16;55.31;100027.84;5083867;28;1070;-59
2023/10/28 08:48:03;;;;;;;;;;;;;;;16.09;55.06;100019.97;5071467;28;1355;-60
2023/10/28 08:50:28;;;;;;;;;;;;;;;16.07;55.12;100023.03;5103813;28;1096;-57
2023/10/28 08:52:54;;;;;;;;;;;;;;;16.08;55.15;100034.78;5091575;28;1123;-56
2023/10/28 08:55:20;;;;;;;;;;;;;;;16.00;55.14;100018.97;5106034;28;1216;-61
2023/10/28 08:57:46;;;;;;;;;;;;;;;16.12;55.32;100011.16;5076838;28;1160;-59
2023/10/28 09:00:16;;;;;;;;;;;;;;;17.48;53.67;100010.06;5075911;28;1898;-59
2023/10/28 09:02:45;;;;;;;;;;;;;;;16.95;54.93;100024.00;5089323;28;1081;-58
2023/10/28 09:05:11;;;;;;;;;;;;;;;16.62;55.48;100032.06;5095886;28;888;-58
2023/10/28 09:07:37;;;;;;;;;;;;;;;16.52;55.56;100028.31;5086153;28;1189;-60
2023/10/28 09:10:04;;;;;;;;;;;;;;;16.42;55.69;100032.00;5090940;28;1114;-57
2023/10/28 09:12:31;;;;;;;;;;;;;;;16.37;55.49;100036.72;5095309;28;1106;-58
2023/10/28 09:14:56;;;;;;;;;;;;;;;16.32;55.43;100029.34;5089259;28;1083;-57
2023/10/28 09:17:22;;;;;;;;;;;;;;;16.26;55.23;100044.22;5094936;28;1028;-59
2023/10/28 09:19:48;;;;;;;;;;;;;;;16.19;55.38;100035.53;5097321;28;1902;-58
2023/10/28 09:22:13;;;;;;;;;;;;;;;16.20;55.23;100032.50;5067804;28;1190;-57
2023/10/28 09:24:42;;;;;;;;;;;;;;;16.18;55.24;100033.88;5093681;28;1200;-57
2023/10/28 09:27:10;;;;;;;;;;;;;;;16.13;55.52;100025.69;5093033;28;1443;-58
2023/10/28 09:29:35;;;;;;;;;;;;;;;16.33;55.42;100028.25;5096870;28;1465;-60
2023/10/28 09:32:05;;;;;;;;;;;;;;;17.50;53.58;100034.50;5098548;28;1082;-57
2023/10/28 09:34:40;;;;;;;;;;;;;;;16.81;55.38;100035.66;5081472;28;841;-55
2023/10/28 09:37:06;;;;;;;;;;;;;;;16.59;55.69;100023.31;5078414;28;1007;-59
2023/10/28 09:39:32;;;;;;;;;;;;;;;16.49;55.61;100028.09;5078397;28;1967;-59
2023/10/28 09:41:59;;;;;;;;;;;;;;;16.42;55.82;100029.25;5078154;28;1134;-57
2023/10/28 09:44:24;;;;;;;;;;;;;;;16.41;55.67;100015.81;5086958;28;1086;-55
2023/10/28 09:46:50;;;;;;;;;;;;;;;16.31;55.53;100026.91;5089523;28;1202;-61
2023/10/28 09:49:17;;;;;;;;;;;;;;;16.32;55.53;100023.84;5067248;28;1114;-62
2023/10/28 09:51:43;;;;;;;;;;;;;;;16.25;55.52;100018.72;5098161;28;1343;-57
2023/10/28 09:54:11;;;;;;;;;;;;;;;16.27;55.54;100004.72;5065504;28;1720;-58
2023/10/28 09:56:37;;;;;;;;;;;;;;;16.22;55.51;100004.78;5089986;28;1113;-58
2023/10/28 09:59:07;;;;;;;;;;;;;;;16.21;55.29;100009.41;5090533;28;1987;-60
2023/10/28 10:01:40;;;;;;;;;;;;;;;16.18;55.29;100007.25;5070685;28;1261;-57
2023/10/28 10:04:32;;;;;;;;;;;;;;;16.15;55.21;100007.84;5089854;28;1146;-58
2023/10/28 10:06:57;;;;;;;;;;;;;;;16.59;55.30;100001.34;5045887;28;1498;-57
2023/10/28 10:09:23;;;;;;;;;;;;;;;17.48;53.88;100006.53;5072148;28;1067;-59
2023/10/28 10:11:51;;;;;;;;;;;;;;;16.89;55.37;100009.53;5091839;28;1185;-57
2023/10/28 10:14:21;;;;;;;;;;;;;;;16.64;55.72;100008.69;5087245;28;931;-57
2023/10/28 10:16:52;;;;;;;;;;;;;;;16.56;55.74;99987.38;5094555;28;1103;-58
2023/10/28 10:19:29;;;;;;;;;;;;;;;16.52;55.43;100003.63;5085813;28;1977;-54
2023/10/28 10:21:55;;;;;;;;;;;;;;;16.41;55.66;100007.56;5075874;28;1166;-55
2023/10/28 10:24:22;;;;;;;;;;;;;;;16.39;55.38;99996.88;5084078;28;968;-55
2023/10/28 10:26:54;;;;;;;;;;;;;;;16.35;55.51;100012.28;5095704;28;1248;-58
2023/10/28 10:29:20;;;;;;;;;;;;;;;16.29;55.53;100016.22;5082982;28;1300;-54
2023/10/28 10:31:48;;;;;;;;;;;;;;;16.23;55.59;100012.69;5080861;28;1185;-56
2023/10/28 10:34:28;;;;;;;;;;;;;;;16.25;55.47;100026.94;5094239;28;1494;-57
2023/10/28 10:36:53;;;;;;;;;;;;;;;16.24;55.39;100028.06;5094393;28;1113;-55
2023/10/28 10:39:19;;;;;;;;;;;;;;;16.22;55.43;100023.97;5087747;28;1906;-58
2023/10/28 10:41:51;;;;;;;;;;;;;;;16.22;55.44;100018.47;5092048;28;1272;-57
2023/10/28 10:44:46;;;;;;;;;;;;;;;16.15;55.34;100029.78;5087471;28;1316;-56
2023/10/28 10:47:17;;;;;;;;;;;;;;;17.36;54.36;100017.94;5073352;28;1437;-56
2023/10/28 10:49:43;;;;;;;;;;;;;;;16.84;55.35;100026.84;5086771;28;1335;-56
2023/10/28 10:52:08;;;;;;;;;;;;;;;16.63;55.76;100022.72;5065386;28;1149;-55
2023/10/28 10:54:35;;;;;;;;;;;;;;;16.52;55.88;100027.50;5085502;28;1300;-54
2023/10/28 10:57:01;;;;;;;;;;;;;;;16.47;56.04;100024.81;5083665;28;1130;-55
2023/10/28 10:59:31;;;;;;;;;;;;;;;16.41;55.87;100032.25;5096464;28;1979;-54
2023/10/28 11:01:57;;;;;;;;;;;;;;;16.35;55.73;100020.53;5090145;28;1002;-54
2023/10/28 11:04:26;;;;;;;;;;;;;;;16.32;55.80;100012.06;5087471;28;1340;-55
2023/10/28 11:06:54;;;;;;;;;;;;;;;16.29;55.89;100018.16;5083253;28;998;-55
2023/10/28 11:09:20;;;;;;;;;;;;;;;16.25;55.58;100023.38;5079437;28;1046;-55
2023/10/28 11:11:45;;;;;;;;;;;;;;;16.24;55.71;100021.75;5068817;28;945;-56
2023/10/28 11:14:12;;;;;;;;;;;;;;;16.21;55.62;100016.84;5092492;28;1471;-55
2023/10/28 11:16:39;;;;;;;;;;;;;;;16.19;55.45;100022.63;5079102;28;1212;-55
2023/10/28 11:19:05;;;;;;;;;;;;;;;16.18;55.28;100020.97;5062188;28;1898;-53
2023/10/28 11:21:31;;;;;;;;;;;;;;;16.16;55.59;100025.09;5075982;28;1009;-52
2023/10/28 11:23:56;;;;;;;;;;;;;;;16.13;55.62;100022.94;5090725;28;987;-50
2023/10/28 11:26:22;;;;;;;;;;;;;;;17.19;54.64;100018.47;5095592;28;1077;-51
2023/10/28 11:28:48;;;;;;;;;;;;;;;17.21;55.19;100027.25;5096135;28;1015;-56
2023/10/28 11:31:13;;;;;;;;;;;;;;;16.76;55.80;100033.81;5096426;28;1157;-53
2023/10/28 11:33:39;;;;;;;;;;;;;;;16.65;56.11;100032.28;5088114;28;1154;-55
2023/10/28 11:36:05;;;;;;;;;;;;;;;16.58;55.95;100042.81;5078114;28;923;-56
2023/10/28 11:38:31;;;;;;;;;;;;;;;16.48;55.82;100048.38;5077304;28;1122;-55
2023/10/28 11:41:06;;;;;;;;;;;;;;;16.44;55.99;100048.16;5081800;28;1914;-56
2023/10/28 11:43:33;;;;;;;;;;;;;;;16.36;55.79;100035.88;5088733;28;1016;-57
2023/10/28 11:45:58;;;;;;;;;;;;;;;16.38;55.64;100044.66;5078677;28;906;-59
2023/10/28 11:48:24;;;;;;;;;;;;;;;16.30;55.75;100042.53;5089467;28;977;-55
2023/10/28 11:50:50;;;;;;;;;;;;;;;16.30;55.40;100042.53;5079432;28;1218;-55
2023/10/28 11:53:16;;;;;;;;;;;;;;;16.25;55.67;100028.88;5079972;28;1230;-56
2023/10/28 11:55:41;;;;;;;;;;;;;;;16.26;55.58;100038.75;5091863;28;1022;-55
2023/10/28 11:58:08;;;;;;;;;;;;;;;16.21;55.40;100039.59;5096895;28;1391;-56
2023/10/28 12:00:34;;;;;;;;;;;;;;;16.19;55.72;100039.06;5080141;28;1914;-55
2023/10/28 12:03:00;;;;;;;;;;;;;;;16.14;55.49;100041.06;5088802;28;1225;-57
2023/10/28 12:05:26;;;;;;;;;;;;;;;16.96;55.33;100048.44;5087873;28;1051;-57
2023/10/28 12:07:51;;;;;;;;;;;;;;;17.34;54.88;100031.97;5087176;28;1142;-55
2023/10/28 12:10:17;;;;;;;;;;;;;;;16.83;55.90;100057.34;5084502;28;1101;-60
2023/10/28 12:12:42;;;;;;;;;;;;;;;16.69;56.14;100049.81;5091580;28;871;-59
2023/10/28 12:15:09;;;;;;;;;;;;;;;16.54;56.33;100059.03;5085687;28;1269;-57
2023/10/28 12:17:35;;;;;;;;;;;;;;;16.49;56.24;100041.81;5076132;28;1019;-58
2023/10/28 12:20:00;;;;;;;;;;;;;;;16.46;56.11;100058.84;5095033;28;1991;-56
2023/10/28 12:22:26;;;;;;;;;;;;;;;16.42;55.88;100067.66;5083536;28;1066;-58
2023/10/28 12:24:51;;;;;;;;;;;;;;;16.36;55.74;100044.13;5085534;28;1413;-59
2023/10/28 12:27:17;;;;;;;;;;;;;;;16.36;55.69;100057.03;5086604;28;1082;-56
2023/10/28 12:29:45;;;;;;;;;;;;;;;16.32;55.82;100045.81;5082761;28;1117;-57
2023/10/28 12:32:10;;;;;;;;;;;;;;;16.33;55.61;100057.63;5086718;28;1296;-59
2023/10/28 12:34:36;;;;;;;;;;;;;;;16.28;55.54;100050.22;5089160;28;1062;-58
2023/10/28 12:37:01;;;;;;;;;;;;;;;16.19;55.83;100047.31;5090908;28;923;-58
2023/10/28 12:39:29;;;;;;;;;;;;;;;16.20;55.45;100048.94;5092296;28;1909;-61
2023/10/28 12:41:54;;;;;;;;;;;;;;;16.20;55.55;100048.94;5086627;28;1068;-57
2023/10/28 12:44:20;;;;;;;;;;;;;;;16.19;55.48;100046.50;5092467;28;1262;-59
2023/10/28 12:46:46;;;;;;;;;;;;;;;16.21;55.34;100047.00;5095412;28;1412;-62
2023/10/28 12:49:11;;;;;;;;;;;;;;;16.53;55.52;100056.59;5092788;28;1178;-56
2023/10/28 12:51:37;;;;;;;;;;;;;;;17.33;55.06;100049.56;5090700;28;1093;-56